createdAt,value
2022-07-31T00:02:12.625Z,8.23
2022-07-31T00:04:42.438Z,7.70
2022-07-31T00:07:16.090Z,8.93
2022-07-31T00:09:54.457Z,7.70
2022-07-31T00:12:23.565Z,7.97
2022-07-31T00:14:54.494Z,8.23
2022-07-31T00:17:25.947Z,7.93
2022-07-31T00:19:58.980Z,7.97
2022-07-31T00:22:29.586Z,7.43
2022-07-31T00:24:58.070Z,7.93
2022-07-31T00:27:26.404Z,8.37
2022-07-31T00:29:54.804Z,8.53
2022-07-31T00:32:27.952Z,8.67
2022-07-31T00:34:56.256Z,8.33
2022-07-31T00:37:26.016Z,7.53
2022-07-31T00:39:54.583Z,7.40
2022-07-31T00:42:25.794Z,7.73
2022-07-31T00:44:54.448Z,8.17
2022-07-31T00:47:25.572Z,7.83
2022-07-31T00:49:57.015Z,8.37
2022-07-31T00:52:26.737Z,7.73
2022-07-31T00:54:55.202Z,7.63
2022-07-31T00:57:23.559Z,8.40
2022-07-31T00:59:52.017Z,7.90
2022-07-31T01:02:20.372Z,7.73
2022-07-31T01:04:48.776Z,9.40
2022-07-31T01:07:17.046Z,8.30
2022-07-31T01:09:53.898Z,8.73
2022-07-31T01:12:25.273Z,8.50
2022-07-31T01:14:57.696Z,8.27
2022-07-31T01:17:32.059Z,8.93
2022-07-31T01:20:02.472Z,8.60
2022-07-31T01:22:50.623Z,8.50
2022-07-31T01:25:37.662Z,8.47
2022-07-31T01:28:10.959Z,8.03
2022-07-31T01:30:44.912Z,8.93
2022-07-31T01:33:17.270Z,8.00
2022-07-31T01:35:53.260Z,8.50
2022-07-31T01:38:30.518Z,8.43
2022-07-31T01:41:00.138Z,8.43
2022-07-31T01:43:32.679Z,9.60
2022-07-31T01:46:37.505Z,9.03
2022-07-31T01:49:10.674Z,8.93
2022-07-31T01:51:45.291Z,8.87
2022-07-31T01:54:14.219Z,8.87
2022-07-31T01:56:45.280Z,8.37
2022-07-31T01:59:22.556Z,9.40
2022-07-31T02:01:53.560Z,8.70
2022-07-31T02:04:24.511Z,8.30
2022-07-31T02:06:57.064Z,8.83
2022-07-31T02:09:28.928Z,8.53
2022-07-31T02:11:57.563Z,8.73
2022-07-31T02:14:26.789Z,9.43
2022-07-31T02:16:57.081Z,8.97
2022-07-31T02:19:29.002Z,8.33
2022-07-31T02:22:08.774Z,8.23
2022-07-31T02:24:40.085Z,8.70
2022-07-31T02:27:56.270Z,8.33
2022-07-31T02:29:59.087Z,8.77
2022-07-31T02:32:29.010Z,7.70
2022-07-31T02:34:59.606Z,8.37
2022-07-31T02:37:28.864Z,8.57
2022-07-31T02:39:59.491Z,7.50
2022-07-31T02:42:28.215Z,8.13
2022-07-31T02:44:57.335Z,8.20
2022-07-31T02:47:25.741Z,8.83
2022-07-31T02:50:04.283Z,8.67
2022-07-31T02:52:32.690Z,8.67
2022-07-31T02:55:03.179Z,9.07
2022-07-31T02:57:31.346Z,9.03
2022-07-31T03:00:03.406Z,8.03
2022-07-31T03:02:37.854Z,8.63
2022-07-31T03:05:08.585Z,8.70
2022-07-31T03:07:41.464Z,8.77
2022-07-31T03:10:13.265Z,8.90
2022-07-31T03:12:51.802Z,9.00
2022-07-31T03:15:21.933Z,8.33
2022-07-31T03:17:53.494Z,8.57
2022-07-31T03:20:25.065Z,9.07
2022-07-31T03:22:55.708Z,9.37
2022-07-31T03:25:25.792Z,9.00
2022-07-31T03:27:57.397Z,8.20
2022-07-31T03:30:26.197Z,9.43
2022-07-31T03:32:58.245Z,8.57
2022-07-31T03:35:30.640Z,8.87
2022-07-31T03:37:58.954Z,8.73
2022-07-31T03:40:29.327Z,8.80
2022-07-31T03:42:58.418Z,9.23
2022-07-31T03:45:30.541Z,8.83
2022-07-31T03:48:00.626Z,8.80
2022-07-31T03:50:30.806Z,8.40
2022-07-31T03:53:04.101Z,9.17
2022-07-31T03:55:36.298Z,9.00
2022-07-31T03:58:09.821Z,8.70
2022-07-31T04:00:38.111Z,8.67
2022-07-31T04:03:12.351Z,8.80
2022-07-31T04:05:44.492Z,8.40
2022-07-31T04:08:17.901Z,8.10
2022-07-31T04:10:46.028Z,8.37
2022-07-31T04:13:14.195Z,8.57
2022-07-31T04:15:45.243Z,8.80
2022-07-31T04:18:17.854Z,8.77
2022-07-31T04:20:53.184Z,8.80
2022-07-31T04:23:21.299Z,9.30
2022-07-31T04:25:55.142Z,8.40
2022-07-31T04:28:24.512Z,8.27
2022-07-31T04:30:52.632Z,8.27
2022-07-31T04:33:21.313Z,9.00
2022-07-31T04:35:55.815Z,9.50
2022-07-31T04:38:28.201Z,9.63
2022-07-31T04:41:02.325Z,9.47
2022-07-31T04:43:30.523Z,9.47
2022-07-31T04:45:59.128Z,8.67
2022-07-31T04:48:29.810Z,8.53
2022-07-31T04:50:59.910Z,9.50
2022-07-31T04:53:28.350Z,8.53
2022-07-31T04:56:10.287Z,8.50
2022-07-31T04:58:38.508Z,9.37
2022-07-31T05:01:09.695Z,9.37
2022-07-31T05:03:41.816Z,10.07
2022-07-31T05:06:17.052Z,9.57
2022-07-31T05:08:45.289Z,9.27
2022-07-31T05:11:25.952Z,10.00
2022-07-31T05:13:58.190Z,10.00
2022-07-31T05:16:29.838Z,8.97
2022-07-31T05:18:58.781Z,9.77
2022-07-31T05:21:32.656Z,8.90
2022-07-31T05:24:05.081Z,8.97
2022-07-31T05:26:40.064Z,9.50
2022-07-31T05:29:10.910Z,8.87
2022-07-31T05:31:39.146Z,8.63
2022-07-31T05:34:27.250Z,8.50
2022-07-31T05:37:01.776Z,8.23
2022-07-31T05:39:30.442Z,8.33
2022-07-31T05:41:58.689Z,7.73
2022-07-31T05:44:37.394Z,8.20
2022-07-31T05:47:08.860Z,7.77
2022-07-31T05:49:42.033Z,7.70
2022-07-31T05:52:11.572Z,7.87
2022-07-31T05:54:46.193Z,7.07
2022-07-31T05:57:32.977Z,8.10
2022-07-31T06:00:07.012Z,7.90
2022-07-31T06:02:37.594Z,8.43
2022-07-31T06:05:06.150Z,7.93
2022-07-31T06:07:37.065Z,8.20
2022-07-31T06:10:06.307Z,8.87
2022-07-31T06:12:37.368Z,7.53
2022-07-31T06:15:07.244Z,7.90
2022-07-31T06:17:43.780Z,7.37
2022-07-31T06:20:15.467Z,7.80
2022-07-31T06:22:48.231Z,7.67
2022-07-31T06:25:16.774Z,8.13
2022-07-31T06:27:50.910Z,8.00
2022-07-31T06:30:28.091Z,7.60
2022-07-31T06:32:56.382Z,8.70
2022-07-31T06:35:29.175Z,8.27
2022-07-31T06:38:01.179Z,8.03
2022-07-31T06:40:29.734Z,8.50
2022-07-31T06:42:58.061Z,8.23
2022-07-31T06:45:50.713Z,7.20
2022-07-31T06:48:19.842Z,7.57
2022-07-31T06:50:48.841Z,7.33
2022-07-31T06:53:22.850Z,8.00
2022-07-31T06:55:51.486Z,7.40
2022-07-31T06:58:20.852Z,8.40
2022-07-31T07:00:55.973Z,7.63
2022-07-31T07:03:24.280Z,7.50
2022-07-31T07:05:52.597Z,7.17
2022-07-31T07:08:22.319Z,7.43
2022-07-31T07:10:56.238Z,7.10
2022-07-31T07:13:45.861Z,6.10
2022-07-31T07:16:16.739Z,6.00
2022-07-31T07:18:46.086Z,5.77
2022-07-31T07:21:14.596Z,5.43
2022-07-31T07:23:47.463Z,6.30
2022-07-31T07:26:21.823Z,6.17
2022-07-31T07:28:56.605Z,6.63
2022-07-31T07:31:31.574Z,5.77
2022-07-31T07:34:03.601Z,6.13
2022-07-31T07:36:32.109Z,7.70
2022-07-31T07:39:03.817Z,4.70
2022-07-31T07:41:32.107Z,5.70
2022-07-31T07:44:00.735Z,5.87
2022-07-31T07:46:36.340Z,6.00
2022-07-31T07:49:05.377Z,6.00
2022-07-31T07:51:34.084Z,6.27
2022-07-31T07:54:15.869Z,5.60
2022-07-31T07:56:45.531Z,5.97
2022-07-31T07:59:14.925Z,5.30
2022-07-31T08:01:43.605Z,5.67
2022-07-31T08:04:11.984Z,5.17
2022-07-31T08:06:40.260Z,6.13
2022-07-31T08:09:10.102Z,7.30
2022-07-31T08:11:40.846Z,5.43
2022-07-31T08:14:15.242Z,5.60
2022-07-31T08:16:44.363Z,5.47
2022-07-31T08:19:14.624Z,6.10
2022-07-31T08:21:42.918Z,6.30
2022-07-31T08:24:15.498Z,6.10
2022-07-31T08:27:03.792Z,5.47
2022-07-31T08:29:43.721Z,4.73
2022-07-31T08:32:13.784Z,5.23
2022-07-31T08:34:56.617Z,5.03
2022-07-31T08:53:10.462Z,4.10
2022-07-31T09:09:04.803Z,4.80
2022-07-31T09:18:23.113Z,4.20
2022-07-31T11:39:51.361Z,1.93
2022-07-31T11:42:44.593Z,3.03
2022-07-31T11:51:45.890Z,2.63
2022-07-31T12:18:49.008Z,2.10
2022-07-31T12:21:44.806Z,2.83
2022-07-31T14:20:56.416Z,1.97
2022-07-31T14:38:51.194Z,2.60
2022-07-31T14:41:41.972Z,1.93
2022-07-31T14:47:09.805Z,1.93
2022-07-31T14:50:09.499Z,2.90
2022-07-31T14:52:27.781Z,2.10
2022-07-31T14:55:06.696Z,3.53
2022-07-31T14:57:35.247Z,1.70
2022-07-31T15:00:03.373Z,3.37
2022-07-31T15:02:39.341Z,2.53
2022-07-31T15:06:41.347Z,2.50
2022-07-31T15:07:58.156Z,2.20
2022-07-31T15:10:27.806Z,3.13
2022-07-31T15:12:59.202Z,2.53
2022-07-31T15:15:30.254Z,1.80
2022-07-31T15:18:02.029Z,2.63
2022-07-31T15:20:33.005Z,2.67
2022-07-31T15:23:01.618Z,1.60
2022-07-31T15:25:34.100Z,2.07
2022-07-31T15:28:02.372Z,1.90
2022-07-31T15:30:31.108Z,1.97
2022-07-31T15:32:59.178Z,1.97
2022-07-31T15:35:29.228Z,1.60
2022-07-31T15:37:59.815Z,1.90
2022-07-31T15:40:27.877Z,2.37
2022-07-31T15:43:00.432Z,2.00
2022-07-31T15:45:28.700Z,1.93
2022-07-31T15:47:59.731Z,2.00
2022-07-31T15:50:27.926Z,2.07
2022-07-31T15:52:56.127Z,2.00
2022-07-31T15:55:24.318Z,1.80
2022-07-31T15:57:52.548Z,2.67
2022-07-31T16:00:22.602Z,3.87
2022-07-31T16:02:57.221Z,2.80
2022-07-31T16:05:36.866Z,10.77
2022-07-31T16:08:32.330Z,2.20
2022-07-31T16:10:56.094Z,2.33
2022-07-31T16:13:27.403Z,2.97
2022-07-31T16:15:57.254Z,27.73
2022-07-31T16:18:25.467Z,5.70
2022-07-31T16:20:53.571Z,2.73
2022-07-31T16:23:28.155Z,3.03
2022-07-31T16:26:08.698Z,3.50
2022-07-31T16:28:36.866Z,3.67
2022-07-31T16:31:06.366Z,2.83
2022-07-31T16:33:34.458Z,3.00
2022-07-31T16:36:02.585Z,2.70
2022-07-31T16:38:36.177Z,2.07
2022-07-31T16:41:08.865Z,2.57
2022-07-31T16:43:49.428Z,2.40
2022-07-31T16:46:20.678Z,2.70
2022-07-31T16:48:49.022Z,1.83
2022-07-31T16:51:17.127Z,2.20
2022-07-31T16:54:13.662Z,2.33
2022-07-31T16:56:33.582Z,2.87
2022-07-31T16:59:04.729Z,2.47
2022-07-31T17:01:54.204Z,5.33
2022-07-31T17:04:28.595Z,2.40
2022-07-31T17:06:57.071Z,2.87
2022-07-31T17:09:25.309Z,2.13
2022-07-31T17:12:00.096Z,2.57
2022-07-31T17:14:29.044Z,3.27
2022-07-31T17:17:01.489Z,1.90
2022-07-31T17:19:36.116Z,1.90
2022-07-31T17:22:11.329Z,2.03
2022-07-31T17:24:41.760Z,2.63
2022-07-31T17:27:13.529Z,2.73
2022-07-31T17:29:41.607Z,3.27
2022-07-31T17:32:14.425Z,3.07
2022-07-31T17:34:45.153Z,2.27
2022-07-31T17:37:13.717Z,2.13
2022-07-31T17:39:41.902Z,2.67
2022-07-31T17:42:10.072Z,2.07
2022-07-31T17:44:39.831Z,2.70
2022-07-31T17:47:10.974Z,2.40
2022-07-31T17:49:40.709Z,2.40
2022-07-31T17:52:09.033Z,3.80
2022-07-31T17:54:37.375Z,4.03
2022-07-31T17:57:14.290Z,2.43
2022-07-31T17:59:42.506Z,11.90
2022-07-31T18:02:13.575Z,3.37
2022-07-31T18:04:43.294Z,2.37
2022-07-31T18:07:12.666Z,2.60
2022-07-31T18:09:43.050Z,2.40
2022-07-31T18:12:15.678Z,2.40
2022-07-31T18:14:46.379Z,2.83
2022-07-31T18:17:14.525Z,2.97
2022-07-31T18:19:47.562Z,2.47
2022-07-31T18:22:18.803Z,2.53
2022-07-31T18:24:46.899Z,2.60
2022-07-31T18:27:15.114Z,2.43
2022-07-31T18:29:56.505Z,2.20
2022-07-31T18:32:31.213Z,2.97
2022-07-31T18:35:11.894Z,4.03
2022-07-31T18:37:40.005Z,3.13
2022-07-31T18:40:15.452Z,4.37
2022-07-31T18:42:46.597Z,3.73
2022-07-31T18:45:14.836Z,3.43
2022-07-31T18:47:43.029Z,3.03
2022-07-31T18:50:59.457Z,2.40
2022-07-31T18:53:09.812Z,3.83
2022-07-31T18:55:41.923Z,2.40
2022-07-31T18:58:12.783Z,2.67
2022-07-31T19:00:42.782Z,3.07
2022-07-31T19:03:11.159Z,2.73
2022-07-31T19:05:44.627Z,3.00
2022-07-31T19:08:12.744Z,2.90
2022-07-31T19:10:40.887Z,2.80
2022-07-31T19:13:09.017Z,2.77
2022-07-31T19:15:47.477Z,3.10
2022-07-31T19:18:15.681Z,2.83
2022-07-31T19:20:59.956Z,4.07
2022-07-31T19:23:46.147Z,3.47
2022-07-31T19:26:16.223Z,2.83
2022-07-31T19:28:50.237Z,3.10
2022-07-31T19:31:19.994Z,4.53
2022-07-31T19:33:48.189Z,4.23
2022-07-31T19:36:17.839Z,2.87
2022-07-31T19:38:47.876Z,3.37
2022-07-31T19:41:16.118Z,3.27
2022-07-31T19:43:49.982Z,3.10
2022-07-31T19:46:21.946Z,7.17
2022-07-31T19:48:51.639Z,3.87
2022-07-31T19:51:24.407Z,3.07
2022-07-31T19:53:57.246Z,3.30
2022-07-31T19:56:25.366Z,4.40
2022-07-31T19:58:53.545Z,3.10
2022-07-31T20:01:21.945Z,3.03
2022-07-31T20:03:51.006Z,2.90
2022-07-31T20:06:22.539Z,3.10
2022-07-31T20:08:58.834Z,3.10
2022-07-31T20:11:27.022Z,3.10
2022-07-31T20:14:00.218Z,4.33
2022-07-31T20:16:28.715Z,2.53
2022-07-31T20:18:56.951Z,3.17
2022-07-31T20:21:25.088Z,3.10
2022-07-31T20:23:56.764Z,3.20
2022-07-31T20:26:30.455Z,3.90
2022-07-31T20:29:01.097Z,3.33
2022-07-31T20:31:31.753Z,3.90
2022-07-31T20:34:02.945Z,3.70
2022-07-31T20:36:31.171Z,3.30
2022-07-31T20:39:00.812Z,3.13
2022-07-31T20:41:33.514Z,3.03
2022-07-31T20:44:01.707Z,3.50
2022-07-31T20:46:34.315Z,3.63
2022-07-31T20:49:02.732Z,3.17
2022-07-31T20:51:33.500Z,3.23
2022-07-31T20:54:05.876Z,2.60
2022-07-31T20:56:34.331Z,3.00
2022-07-31T20:59:03.521Z,3.00
2022-07-31T21:01:37.652Z,3.17
2022-07-31T21:04:07.936Z,3.33
2022-07-31T21:06:36.021Z,3.17
2022-07-31T21:09:09.685Z,2.80
2022-07-31T21:11:43.953Z,2.87
2022-07-31T21:14:15.638Z,2.67
2022-07-31T21:16:46.762Z,3.13
2022-07-31T21:19:17.854Z,2.70
2022-07-31T21:21:47.539Z,2.73
2022-07-31T21:24:17.627Z,3.30
2022-07-31T21:26:51.056Z,2.97
2022-07-31T21:29:22.512Z,3.53
2022-07-31T21:31:56.646Z,3.27
2022-07-31T21:34:28.010Z,2.90
2022-07-31T21:36:56.291Z,3.30
2022-07-31T21:39:34.602Z,2.70
2022-07-31T21:42:06.046Z,2.70
2022-07-31T21:44:37.364Z,3.40
2022-07-31T21:47:06.450Z,2.47
2022-07-31T21:49:36.657Z,2.80
2022-07-31T21:52:13.288Z,2.90
2022-07-31T21:54:42.789Z,3.13
2022-07-31T21:57:17.534Z,3.10
2022-07-31T21:59:48.417Z,3.53
2022-07-31T22:02:17.702Z,4.00
2022-07-31T22:05:02.101Z,3.33
2022-07-31T22:07:33.345Z,3.30
2022-07-31T22:10:08.451Z,4.00
2022-07-31T22:12:36.578Z,3.80
2022-07-31T22:15:12.329Z,3.07
2022-07-31T22:17:43.145Z,3.00
2022-07-31T22:20:12.426Z,3.33
2022-07-31T22:22:45.615Z,3.20
2022-07-31T22:25:16.540Z,3.87
2022-07-31T22:27:58.326Z,3.57
2022-07-31T22:30:28.099Z,3.37
2022-07-31T22:33:01.437Z,3.50
2022-07-31T22:35:40.976Z,3.87
2022-07-31T22:38:11.234Z,3.37
2022-07-31T22:40:51.468Z,3.10
2022-07-31T22:44:09.634Z,3.27
2022-07-31T22:46:16.055Z,2.80
2022-07-31T22:48:45.877Z,3.70
2022-07-31T22:51:16.450Z,3.10
2022-07-31T22:53:48.679Z,3.37
2022-07-31T22:56:18.955Z,3.33
2022-07-31T22:58:47.088Z,3.30
2022-07-31T23:01:20.771Z,3.20
2022-07-31T23:03:48.867Z,3.27
2022-07-31T23:06:32.208Z,2.93
2022-07-31T23:09:01.566Z,3.17
2022-07-31T23:11:31.129Z,3.33
2022-07-31T23:14:02.231Z,2.90
2022-07-31T23:16:30.297Z,4.47
2022-07-31T23:18:58.407Z,3.10
2022-07-31T23:21:26.648Z,3.07
2022-07-31T23:23:58.495Z,3.73
2022-07-31T23:26:27.088Z,2.93
2022-07-31T23:28:59.436Z,3.80
2022-07-31T23:31:32.987Z,4.53
2022-07-31T23:34:02.264Z,3.43
2022-07-31T23:36:30.396Z,3.50
2022-07-31T23:38:58.689Z,2.93
2022-07-31T23:41:44.534Z,3.50
2022-07-31T23:44:14.017Z,3.57
2022-07-31T23:46:46.823Z,3.00
2022-07-31T23:49:22.409Z,3.50
2022-07-31T23:51:55.637Z,5.93
2022-07-31T23:54:26.669Z,3.07
2022-07-31T23:57:01.492Z,3.10
2022-07-31T23:59:30.972Z,3.10
